createdAt,value
2017-03-22T00:00:30.826Z,1030.37
2017-03-22T00:01:30.816Z,1030.4
2017-03-22T00:02:30.804Z,1030.46
2017-03-22T00:03:30.792Z,1030.48
2017-03-22T00:04:30.783Z,1030.49
2017-03-22T00:05:30.771Z,1030.5
2017-03-22T00:06:30.760Z,1030.55
2017-03-22T00:07:30.749Z,1030.5
2017-03-22T00:08:30.739Z,1030.52
2017-03-22T00:09:30.728Z,1030.52
2017-03-22T00:10:30.716Z,1030.57
2017-03-22T00:11:30.705Z,1030.6
2017-03-22T00:12:30.695Z,1030.67
2017-03-22T00:13:30.683Z,1030.71
2017-03-22T00:14:30.677Z,1030.74
2017-03-22T00:15:30.662Z,1030.78
2017-03-22T00:16:30.651Z,1030.84
2017-03-22T00:17:30.639Z,1030.86
2017-03-22T00:18:30.628Z,1030.86
2017-03-22T00:19:30.618Z,1030.9
2017-03-22T00:20:30.606Z,1030.92
2017-03-22T00:21:30.595Z,1030.99
2017-03-22T00:22:30.584Z,1030.99
2017-03-22T00:23:30.573Z,1031.02
2017-03-22T00:24:30.565Z,1031.05
2017-03-22T00:25:30.551Z,1031.06
2017-03-22T00:26:30.539Z,1031.08
2017-03-22T00:27:30.529Z,1031.09
2017-03-22T00:28:30.517Z,1031.08
2017-03-22T00:29:30.505Z,1031.11
2017-03-22T00:30:30.493Z,1031.11
2017-03-22T00:31:30.483Z,1031.14
2017-03-22T00:32:30.471Z,1031.13
2017-03-22T00:33:30.461Z,1031.17
2017-03-22T00:34:30.449Z,1031.18
2017-03-22T00:35:30.437Z,1031.2
2017-03-22T00:36:30.425Z,1031.22
2017-03-22T00:37:30.415Z,1031.29
2017-03-22T00:38:30.411Z,1031.32
2017-03-22T00:39:30.391Z,1031.32
2017-03-22T00:40:30.380Z,1031.34
2017-03-22T00:41:30.369Z,1031.35
2017-03-22T00:42:30.358Z,1031.35
2017-03-22T00:43:30.346Z,1031.4
2017-03-22T00:44:30.336Z,1031.38
2017-03-22T00:45:30.324Z,1031.42
2017-03-22T00:46:30.311Z,1031.41
2017-03-22T00:47:30.299Z,1031.46
2017-03-22T00:48:30.289Z,1031.45
2017-03-22T00:49:30.277Z,1031.47
2017-03-22T00:50:30.264Z,1031.53
2017-03-22T00:51:30.253Z,1031.5
2017-03-22T00:52:30.242Z,1031.54
2017-03-22T00:53:30.231Z,1031.57
2017-03-22T00:54:30.219Z,1031.58
2017-03-22T00:55:30.208Z,1031.54
2017-03-22T00:56:30.196Z,1031.58
2017-03-22T00:57:30.183Z,1031.56
2017-03-22T00:58:30.172Z,1031.58
2017-03-22T00:59:30.161Z,1031.57
2017-03-22T01:00:30.149Z,1031.6
2017-03-22T01:01:30.137Z,1031.63
2017-03-22T01:02:30.126Z,1031.64
2017-03-22T01:03:30.114Z,1031.63
2017-03-22T01:04:30.103Z,1031.65
2017-03-22T01:05:30.091Z,1031.67
2017-03-22T01:06:30.081Z,1031.66
2017-03-22T01:07:30.067Z,1031.67
2017-03-22T01:08:30.060Z,1031.7
2017-03-22T01:09:30.044Z,1031.73
2017-03-22T01:10:30.032Z,1031.79
2017-03-22T01:11:30.021Z,1031.81
2017-03-22T01:12:30.008Z,1031.83
2017-03-22T01:13:29.996Z,1031.8
2017-03-22T01:14:29.985Z,1031.81
2017-03-22T01:15:29.973Z,1031.8
2017-03-22T01:16:29.961Z,1031.84
2017-03-22T01:17:29.950Z,1031.82
2017-03-22T01:18:29.938Z,1031.83
2017-03-22T01:19:29.924Z,1031.88
2017-03-22T01:20:29.913Z,1031.83
2017-03-22T01:21:29.902Z,1031.86
2017-03-22T01:22:29.891Z,1031.85
2017-03-22T01:23:29.878Z,1031.83
2017-03-22T01:24:29.866Z,1031.84
2017-03-22T01:25:29.854Z,1031.86
2017-03-22T01:26:29.841Z,1031.89
2017-03-22T01:27:29.831Z,1031.9
2017-03-22T01:28:29.819Z,1031.9
2017-03-22T01:29:29.806Z,1031.89
2017-03-22T01:30:29.793Z,1031.92
2017-03-22T01:31:29.781Z,1031.96
2017-03-22T01:32:29.771Z,1031.95
2017-03-22T01:33:29.759Z,1031.99
2017-03-22T01:34:29.745Z,1032
2017-03-22T01:35:29.734Z,1032.05
2017-03-22T01:36:29.722Z,1032.09
2017-03-22T01:37:29.711Z,1032.12
2017-03-22T01:38:29.698Z,1032.15
2017-03-22T01:39:29.685Z,1032.16
2017-03-22T01:40:29.674Z,1032.19
2017-03-22T01:41:29.661Z,1032.24
2017-03-22T01:42:29.650Z,1032.25
2017-03-22T01:43:29.638Z,1032.26
2017-03-22T01:44:29.625Z,1032.33
2017-03-22T01:45:29.613Z,1032.36
2017-03-22T01:46:29.601Z,1032.36
2017-03-22T01:47:29.589Z,1032.42
2017-03-22T01:48:29.583Z,1032.45
2017-03-22T01:49:29.566Z,1032.45
2017-03-22T01:50:29.552Z,1032.45
2017-03-22T01:51:29.541Z,1032.47
2017-03-22T01:52:29.528Z,1032.45
2017-03-22T01:53:29.516Z,1032.44
2017-03-22T01:54:29.503Z,1032.44
2017-03-22T01:55:29.491Z,1032.45
2017-03-22T01:56:29.482Z,1032.46
2017-03-22T01:57:29.467Z,1032.47
2017-03-22T01:58:29.456Z,1032.46
2017-03-22T01:59:29.441Z,1032.47
2017-03-22T02:00:29.429Z,1032.5
2017-03-22T02:01:29.417Z,1032.53
2017-03-22T02:02:29.405Z,1032.51
2017-03-22T02:03:29.392Z,1032.55
2017-03-22T02:04:29.380Z,1032.57
2017-03-22T02:05:29.367Z,1032.62
2017-03-22T02:06:29.355Z,1032.61
2017-03-22T02:07:29.342Z,1032.66
2017-03-22T02:08:29.330Z,1032.72
2017-03-22T02:09:29.319Z,1032.74
2017-03-22T02:10:29.304Z,1032.8
2017-03-22T02:11:29.292Z,1032.8
2017-03-22T02:12:29.280Z,1032.84
2017-03-22T02:13:29.269Z,1032.88
2017-03-22T02:14:29.255Z,1032.88
2017-03-22T02:15:29.242Z,1032.88
2017-03-22T02:16:29.230Z,1032.92
2017-03-22T02:17:29.218Z,1032.93
2017-03-22T02:18:29.205Z,1032.94
2017-03-22T02:19:29.192Z,1032.93
2017-03-22T02:20:29.180Z,1032.95
2017-03-22T02:21:29.166Z,1032.95
2017-03-22T02:22:29.154Z,1032.9
2017-03-22T02:23:29.142Z,1032.87
2017-03-22T02:24:29.130Z,1032.86
2017-03-22T02:25:29.116Z,1032.85
2017-03-22T02:26:29.104Z,1032.85
2017-03-22T02:27:29.092Z,1032.85
2017-03-22T02:28:29.081Z,1032.85
2017-03-22T02:29:29.066Z,1032.85
2017-03-22T02:30:29.054Z,1032.84
2017-03-22T02:31:29.041Z,1032.79
2017-03-22T02:32:29.027Z,1032.78
2017-03-22T02:33:29.015Z,1032.78
2017-03-22T02:34:29.002Z,1032.74
2017-03-22T02:35:28.990Z,1032.71
2017-03-22T02:36:28.976Z,1032.68
2017-03-22T02:37:28.964Z,1032.67
2017-03-22T02:38:28.952Z,1032.67
2017-03-22T02:39:28.939Z,1032.71
2017-03-22T02:40:28.927Z,1032.72
2017-03-22T02:41:28.914Z,1032.69
2017-03-22T02:42:28.902Z,1032.68
2017-03-22T02:44:28.876Z,1032.66
2017-03-22T02:45:28.864Z,1032.62
2017-03-22T02:54:28.751Z,1032.6
2017-03-22T02:55:28.739Z,1032.64
2017-03-22T02:56:29.131Z,1032.67
2017-03-22T02:57:28.714Z,1032.66
2017-03-22T02:58:28.702Z,1032.66
2017-03-22T02:59:28.689Z,1032.71
2017-03-22T03:00:28.676Z,1032.7
2017-03-22T03:01:28.663Z,1032.76
2017-03-22T03:02:28.651Z,1032.74
2017-03-22T03:03:28.639Z,1032.74
2017-03-22T03:04:28.626Z,1032.77
2017-03-22T03:05:28.613Z,1032.78
2017-03-22T03:06:28.603Z,1032.77
2017-03-22T03:07:28.589Z,1032.79
2017-03-22T03:08:28.583Z,1032.8
2017-03-22T03:09:28.564Z,1032.79
2017-03-22T03:10:28.551Z,1032.82
2017-03-22T03:11:28.539Z,1032.8
2017-03-22T03:12:28.526Z,1032.81
2017-03-22T03:13:28.514Z,1032.83
2017-03-22T03:14:28.502Z,1032.88
2017-03-22T03:15:28.490Z,1032.86
2017-03-22T03:16:28.476Z,1032.87
2017-03-22T03:17:28.464Z,1032.9
2017-03-22T03:18:28.451Z,1032.88
2017-03-22T03:19:28.440Z,1032.91
2017-03-22T03:20:28.426Z,1032.92
2017-03-22T03:21:28.414Z,1032.95
2017-03-22T03:22:28.401Z,1032.92
2017-03-22T03:23:28.388Z,1032.92
2017-03-22T03:24:28.376Z,1032.94
2017-03-22T03:25:28.364Z,1032.94
2017-03-22T03:26:28.352Z,1032.93
2017-03-22T03:27:28.338Z,1032.92
2017-03-22T03:28:28.326Z,1032.92
2017-03-22T03:29:28.315Z,1032.9
2017-03-22T03:30:28.302Z,1032.88
2017-03-22T03:31:28.288Z,1032.87
2017-03-22T03:32:28.275Z,1032.85
2017-03-22T03:33:28.264Z,1032.79
2017-03-22T03:34:28.250Z,1032.76
2017-03-22T03:35:28.238Z,1032.74
2017-03-22T03:36:28.226Z,1032.71
2017-03-22T03:37:28.215Z,1032.68
2017-03-22T03:38:28.201Z,1032.72
2017-03-22T03:39:28.188Z,1032.7
2017-03-22T03:40:28.176Z,1032.73
2017-03-22T03:41:28.164Z,1032.73
2017-03-22T03:42:28.157Z,1032.73
2017-03-22T03:43:28.139Z,1032.7
2017-03-22T03:44:28.127Z,1032.72
2017-03-22T03:45:28.112Z,1032.72
2017-03-22T03:46:28.101Z,1032.71
2017-03-22T03:47:28.089Z,1032.73
2017-03-22T03:48:28.076Z,1032.71
2017-03-22T03:49:28.064Z,1032.67
2017-03-22T03:50:28.051Z,1032.68
2017-03-22T03:51:28.038Z,1032.64
2017-03-22T03:52:28.028Z,1032.65
2017-03-22T03:53:28.014Z,1032.68
2017-03-22T03:54:28.003Z,1032.69
2017-03-22T03:55:27.990Z,1032.68
2017-03-22T03:56:27.976Z,1032.72
2017-03-22T03:57:27.965Z,1032.68
2017-03-22T03:58:27.953Z,1032.69
2017-03-22T03:59:27.941Z,1032.66
2017-03-22T04:00:27.927Z,1032.67
2017-03-22T04:01:27.916Z,1032.66
2017-03-22T04:02:27.903Z,1032.68
2017-03-22T04:03:27.891Z,1032.7
2017-03-22T04:04:27.879Z,1032.67
2017-03-22T04:05:27.866Z,1032.65
2017-03-22T04:06:27.854Z,1032.63
2017-03-22T04:07:27.876Z,1032.64
2017-03-22T04:08:27.830Z,1032.61
2017-03-22T04:09:27.817Z,1032.66
2017-03-22T04:10:27.805Z,1032.65
2017-03-22T04:11:27.792Z,1032.68
2017-03-22T04:12:27.779Z,1032.72
2017-03-22T04:13:27.768Z,1032.72
2017-03-22T04:14:27.756Z,1032.76
2017-03-22T04:15:27.743Z,1032.75
2017-03-22T04:16:27.752Z,1032.8
2017-03-22T04:17:27.719Z,1032.76
2017-03-22T04:18:27.706Z,1032.78
2017-03-22T04:19:27.694Z,1032.72
2017-03-22T04:20:27.683Z,1032.74
2017-03-22T04:21:27.670Z,1032.73
2017-03-22T04:22:27.658Z,1032.76
2017-03-22T04:23:27.645Z,1032.81
2017-03-22T04:24:27.633Z,1032.83
2017-03-22T04:25:27.621Z,1032.8
2017-03-22T04:26:27.608Z,1032.79
2017-03-22T04:27:27.597Z,1032.82
2017-03-22T04:28:27.585Z,1032.82
2017-03-22T04:29:27.572Z,1032.85
2017-03-22T04:30:27.560Z,1032.84
2017-03-22T04:31:27.548Z,1032.78
2017-03-22T04:32:27.535Z,1032.84
2017-03-22T04:33:27.522Z,1032.81
2017-03-22T04:34:27.511Z,1032.86
2017-03-22T04:35:27.499Z,1032.86
2017-03-22T04:36:27.486Z,1032.86
2017-03-22T04:37:27.474Z,1032.84
2017-03-22T04:38:27.462Z,1032.86
2017-03-22T04:39:27.450Z,1032.9
2017-03-22T04:40:27.437Z,1032.88
2017-03-22T04:41:27.425Z,1032.88
2017-03-22T04:42:27.420Z,1032.86
2017-03-22T04:43:27.403Z,1032.85
2017-03-22T04:44:27.389Z,1032.85
2017-03-22T04:45:27.376Z,1032.88
2017-03-22T04:46:27.365Z,1032.86
2017-03-22T04:47:27.351Z,1032.85
2017-03-22T04:48:27.340Z,1032.92
2017-03-22T04:49:27.328Z,1032.93
2017-03-22T04:50:27.315Z,1032.92
2017-03-22T04:51:27.303Z,1032.88
2017-03-22T04:52:27.291Z,1032.87
2017-03-22T04:53:27.312Z,1032.87
2017-03-22T04:54:27.268Z,1032.86
2017-03-22T04:55:27.254Z,1032.88
2017-03-22T04:56:27.242Z,1032.9
2017-03-22T04:57:27.230Z,1032.88
2017-03-22T04:58:27.217Z,1032.9
2017-03-22T04:59:27.206Z,1032.9
2017-03-22T05:00:27.193Z,1032.92
2017-03-22T05:01:27.181Z,1032.9
2017-03-22T05:02:27.169Z,1032.95
2017-03-22T05:03:27.189Z,1032.95
2017-03-22T05:04:27.144Z,1032.97
2017-03-22T05:05:27.133Z,1032.98
2017-03-22T05:06:27.120Z,1033.02
2017-03-22T05:07:27.108Z,1033.06
2017-03-22T05:08:27.096Z,1033.11
2017-03-22T05:09:27.083Z,1033.13
2017-03-22T05:10:27.071Z,1033.15
2017-03-22T05:11:27.059Z,1033.19
2017-03-22T05:12:27.048Z,1033.16
2017-03-22T05:13:27.035Z,1033.16
2017-03-22T05:14:27.023Z,1033.18
2017-03-22T05:15:27.010Z,1033.18
2017-03-22T05:16:26.998Z,1033.13
2017-03-22T05:17:26.986Z,1033.13
2017-03-22T05:18:26.974Z,1033.13
2017-03-22T05:19:26.962Z,1033.11
2017-03-22T05:20:26.949Z,1033.13
2017-03-22T05:21:26.939Z,1033.14
2017-03-22T05:22:26.925Z,1033.12
2017-03-22T05:23:26.914Z,1033.1
2017-03-22T05:24:26.901Z,1033.09
2017-03-22T05:25:26.887Z,1033.12
2017-03-22T05:26:26.876Z,1033.08
2017-03-22T05:27:26.865Z,1033.06
2017-03-22T05:28:26.852Z,1033.02
2017-03-22T05:29:26.840Z,1032.99
2017-03-22T05:30:26.828Z,1032.97
2017-03-22T05:31:26.815Z,1032.98
2017-03-22T05:32:26.804Z,1032.92
2017-03-22T05:33:26.792Z,1032.91
2017-03-22T05:34:26.781Z,1032.87
2017-03-22T05:35:26.767Z,1032.87
2017-03-22T05:36:26.756Z,1032.89
2017-03-22T05:37:26.744Z,1032.86
2017-03-22T05:38:26.733Z,1032.88
2017-03-22T05:39:26.720Z,1032.88
2017-03-22T05:40:26.739Z,1032.83
2017-03-22T05:41:26.696Z,1032.79
2017-03-22T05:42:26.684Z,1032.74
2017-03-22T05:43:26.673Z,1032.7
2017-03-22T05:44:26.661Z,1032.68
2017-03-22T05:45:26.649Z,1032.61
2017-03-22T05:46:26.637Z,1032.6
2017-03-22T05:47:26.625Z,1032.56
2017-03-22T05:48:26.614Z,1032.53
2017-03-22T05:49:26.602Z,1032.49
2017-03-22T05:50:26.591Z,1032.46
2017-03-22T05:51:26.579Z,1032.42
2017-03-22T05:52:26.568Z,1032.36
2017-03-22T05:53:26.556Z,1032.33
2017-03-22T05:54:26.545Z,1032.29
2017-03-22T05:55:26.533Z,1032.25
2017-03-22T05:56:26.522Z,1032.25
2017-03-22T05:57:26.510Z,1032.25
2017-03-22T05:58:26.499Z,1032.21
2017-03-22T05:59:26.487Z,1032.15
2017-03-22T06:00:26.476Z,1032.13
2017-03-22T06:01:26.464Z,1032.09
2017-03-22T06:02:26.455Z,1032.01
2017-03-22T06:03:26.443Z,1031.97
2017-03-22T06:04:26.431Z,1031.91
2017-03-22T06:05:26.420Z,1031.91
2017-03-22T06:06:26.409Z,1031.89
2017-03-22T06:07:26.398Z,1031.83
2017-03-22T06:08:26.387Z,1031.74
2017-03-22T06:09:26.376Z,1031.78
2017-03-22T06:10:26.365Z,1031.7
2017-03-22T06:11:26.354Z,1031.66
2017-03-22T06:12:26.343Z,1031.6
2017-03-22T06:13:26.333Z,1031.52
2017-03-22T06:14:26.323Z,1031.5
2017-03-22T06:15:26.311Z,1031.47
2017-03-22T06:16:26.301Z,1031.51
2017-03-22T06:17:26.290Z,1031.52
2017-03-22T06:18:26.280Z,1031.51
2017-03-22T06:19:26.269Z,1031.5
2017-03-22T06:20:26.259Z,1031.48
2017-03-22T06:21:26.249Z,1031.44
2017-03-22T06:22:26.238Z,1031.43
2017-03-22T06:23:26.228Z,1031.41
2017-03-22T06:24:26.217Z,1031.32
2017-03-22T06:25:26.207Z,1031.28
2017-03-22T06:26:26.197Z,1031.22
2017-03-22T06:27:26.186Z,1031.2
2017-03-22T06:28:26.177Z,1031.12
2017-03-22T06:29:26.167Z,1031.08
2017-03-22T06:30:26.156Z,1031.07
2017-03-22T06:31:26.146Z,1031.04
2017-03-22T06:32:26.139Z,1031.02
2017-03-22T06:33:26.126Z,1030.93
2017-03-22T06:34:26.117Z,1030.9
2017-03-22T06:35:26.107Z,1030.83
2017-03-22T06:36:26.097Z,1030.72
2017-03-22T06:37:26.087Z,1030.66
2017-03-22T06:38:26.078Z,1030.54
2017-03-22T06:39:26.069Z,1030.48
2017-03-22T06:40:26.059Z,1030.37
2017-03-22T06:41:26.049Z,1030.34
2017-03-22T06:42:26.040Z,1030.28
2017-03-22T06:43:26.031Z,1030.18
2017-03-22T06:44:26.021Z,1030.01
2017-03-22T06:45:26.012Z,1029.89
2017-03-22T06:46:26.003Z,1029.79
2017-03-22T06:47:25.995Z,1029.65
2017-03-22T06:48:25.985Z,1029.5
2017-03-22T06:49:25.976Z,1029.43
2017-03-22T06:50:25.967Z,1029.32
2017-03-22T06:51:25.959Z,1029.21
2017-03-22T06:52:25.950Z,1029.21
2017-03-22T06:53:25.942Z,1029.24
2017-03-22T06:54:25.935Z,1029.21
2017-03-22T06:55:25.925Z,1029.15
2017-03-22T06:56:25.918Z,1029.13
2017-03-22T06:57:25.910Z,1029
2017-03-22T06:58:25.902Z,1028.93
2017-03-22T06:59:25.894Z,1028.94
2017-03-22T07:00:25.886Z,1028.83
2017-03-22T07:01:25.878Z,1028.79
2017-03-22T07:02:25.871Z,1028.79
2017-03-22T07:03:25.863Z,1028.71
2017-03-22T07:04:25.856Z,1028.68
2017-03-22T07:05:25.848Z,1028.62
2017-03-22T07:06:25.840Z,1028.57
2017-03-22T07:07:25.834Z,1028.54
2017-03-22T07:08:25.826Z,1028.45
2017-03-22T07:09:25.821Z,1028.44
2017-03-22T07:10:25.812Z,1028.37
2017-03-22T07:11:25.805Z,1028.41
2017-03-22T07:12:25.800Z,1028.36
2017-03-22T07:13:25.794Z,1028.19
2017-03-22T07:14:25.786Z,1028.14
2017-03-22T07:15:25.779Z,1027.89
2017-03-22T07:16:25.774Z,1027.63
2017-03-22T07:17:25.767Z,1027.64
2017-03-22T07:18:25.761Z,1027.6
2017-03-22T07:19:25.754Z,1027.62
2017-03-22T07:20:25.748Z,1027.66
2017-03-22T07:21:25.741Z,1027.68
2017-03-22T07:22:25.736Z,1027.6
2017-03-22T07:23:25.731Z,1027.37
2017-03-22T07:24:25.727Z,1027.23
2017-03-22T07:25:25.719Z,1026.95
2017-03-22T07:26:25.718Z,1026.84
2017-03-22T07:27:25.710Z,1026.62
2017-03-22T07:28:25.705Z,1026.48
2017-03-22T07:29:25.704Z,1026.25
2017-03-22T07:30:25.695Z,1026.01
2017-03-22T07:31:25.689Z,1025.71
2017-03-22T07:32:25.685Z,1025.39
2017-03-22T07:33:25.680Z,1025.11
2017-03-22T07:34:25.677Z,1024.78
2017-03-22T07:35:25.673Z,1024.5
2017-03-22T07:36:25.670Z,1024.26
2017-03-22T07:37:25.667Z,1024.04
2017-03-22T07:38:25.665Z,1023.95
2017-03-22T07:39:25.660Z,1024.01
2017-03-22T07:40:25.659Z,1024.17
2017-03-22T07:41:25.656Z,1023.98
2017-03-22T07:42:25.654Z,1023.54
2017-03-22T07:43:25.651Z,1023.44
2017-03-22T07:44:25.650Z,1023.72
2017-03-22T07:45:25.649Z,1023.76
2017-03-22T07:46:25.646Z,1024.21
2017-03-22T07:47:25.645Z,1024.42
2017-03-22T07:48:25.645Z,1024.42
2017-03-22T07:49:25.643Z,1024.46
2017-03-22T07:50:25.641Z,1024.6
2017-03-22T07:51:25.641Z,1024.84
2017-03-22T07:52:25.640Z,1024.6
2017-03-22T07:53:25.641Z,1024.46
2017-03-22T07:54:25.638Z,1024.48
2017-03-22T07:55:25.639Z,1024.53
2017-03-22T07:56:25.637Z,1024.57
2017-03-22T07:57:25.636Z,1024.59
2017-03-22T07:58:25.637Z,1024.55
2017-03-22T07:59:25.636Z,1024.43
2017-03-22T08:00:25.636Z,1024.43
2017-03-22T08:01:25.637Z,1024.31
2017-03-22T08:02:25.635Z,1024.26
2017-03-22T08:03:25.636Z,1024.22
2017-03-22T08:04:25.636Z,1024.22
2017-03-22T08:05:25.636Z,1024.22
2017-03-22T08:06:25.637Z,1024.34
2017-03-22T08:07:25.638Z,1024.38
2017-03-22T08:08:25.636Z,1024.39
2017-03-22T08:09:25.639Z,1024.46
2017-03-22T08:10:25.638Z,1024.51
2017-03-22T08:11:25.640Z,1024.91
2017-03-22T08:12:25.638Z,1025.41
2017-03-22T08:13:25.638Z,1025.84
2017-03-22T08:14:25.639Z,1026.34
2017-03-22T08:15:25.638Z,1026.77
2017-03-22T08:16:25.637Z,1027.17
2017-03-22T08:17:25.636Z,1027.47
2017-03-22T08:18:25.636Z,1027.74
2017-03-22T08:19:25.634Z,1028
2017-03-22T08:20:25.632Z,1028.13
2017-03-22T08:21:25.630Z,1028.31
2017-03-22T08:22:25.629Z,1028.5
2017-03-22T08:23:25.626Z,1028.63
2017-03-22T08:24:25.624Z,1028.81
2017-03-22T08:25:25.621Z,1028.94
2017-03-22T08:26:25.618Z,1029.08
2017-03-22T08:27:25.614Z,1029.18
2017-03-22T08:28:25.612Z,1029.3
2017-03-22T08:29:25.608Z,1029.47
2017-03-22T08:30:25.609Z,1029.54
2017-03-22T08:31:25.600Z,1029.67
2017-03-22T08:32:25.596Z,1029.81
2017-03-22T08:33:25.592Z,1029.88
2017-03-22T08:34:25.586Z,1029.94
2017-03-22T08:35:25.583Z,1030.03
2017-03-22T08:36:25.578Z,1030.07
2017-03-22T08:37:25.574Z,1030.11
2017-03-22T08:38:25.568Z,1030.14
2017-03-22T08:39:25.564Z,1030.15
2017-03-22T08:40:25.559Z,1030.24
2017-03-22T08:41:25.553Z,1030.29
2017-03-22T08:42:25.548Z,1030.38
2017-03-22T08:43:25.543Z,1030.4
2017-03-22T08:44:25.537Z,1030.49
2017-03-22T08:45:25.532Z,1030.53
2017-03-22T08:46:25.526Z,1030.56
2017-03-22T08:47:25.521Z,1030.6
2017-03-22T08:48:25.517Z,1030.66
2017-03-22T08:49:25.509Z,1030.72
2017-03-22T08:50:25.503Z,1030.77
2017-03-22T08:51:25.498Z,1030.77
2017-03-22T08:52:25.490Z,1030.73
2017-03-22T08:53:25.485Z,1030.68
2017-03-22T08:54:25.488Z,1030.64
2017-03-22T08:55:25.473Z,1030.64
2017-03-22T08:56:25.467Z,1030.61
2017-03-22T08:57:25.461Z,1030.64
2017-03-22T08:58:25.455Z,1030.66
2017-03-22T08:59:25.450Z,1030.64
2017-03-22T09:00:25.443Z,1030.57
2017-03-22T09:01:25.437Z,1030.49
2017-03-22T09:02:25.430Z,1030.48
2017-03-22T09:03:25.425Z,1030.45
2017-03-22T09:04:25.417Z,1030.42
2017-03-22T09:05:25.412Z,1030.37
2017-03-22T09:06:25.406Z,1030.3
2017-03-22T09:07:25.398Z,1030.23
2017-03-22T09:08:25.392Z,1030.1
2017-03-22T09:09:25.387Z,1030.05
2017-03-22T09:10:25.380Z,1030.02
2017-03-22T09:11:25.374Z,1030
2017-03-22T09:12:25.369Z,1029.98
2017-03-22T09:13:25.362Z,1030.07
2017-03-22T09:14:25.356Z,1030.12
2017-03-22T09:15:25.350Z,1030.16
2017-03-22T09:16:25.344Z,1030.2
2017-03-22T09:17:25.339Z,1030.22
2017-03-22T09:18:25.334Z,1030.22
2017-03-22T09:19:25.326Z,1030.21
2017-03-22T09:20:25.321Z,1030.26
2017-03-22T09:21:25.315Z,1030.39
2017-03-22T09:22:25.309Z,1030.43
2017-03-22T09:23:25.303Z,1030.48
2017-03-22T09:24:25.298Z,1030.43
2017-03-22T09:25:25.291Z,1030.31
2017-03-22T09:26:25.286Z,1030.15
2017-03-22T09:27:25.279Z,1030.06
2017-03-22T09:28:25.275Z,1029.94
2017-03-22T09:29:25.269Z,1029.87
2017-03-22T09:30:25.263Z,1029.8
2017-03-22T09:31:25.262Z,1029.77
2017-03-22T09:32:25.252Z,1029.74
2017-03-22T09:33:25.246Z,1029.75
2017-03-22T09:34:25.241Z,1029.71
2017-03-22T09:35:25.235Z,1029.78
2017-03-22T09:36:25.229Z,1029.78
2017-03-22T09:37:25.224Z,1029.73
2017-03-22T09:38:25.222Z,1029.79
2017-03-22T09:39:25.214Z,1029.85
2017-03-22T09:40:25.208Z,1029.91
2017-03-22T09:41:25.202Z,1029.97
2017-03-22T09:42:25.197Z,1030.03
2017-03-22T09:43:25.191Z,1030.06
2017-03-22T09:44:25.187Z,1030.02
2017-03-22T09:45:25.182Z,1030.04
2017-03-22T09:46:25.176Z,1030.08
2017-03-22T09:47:25.171Z,1030.14
2017-03-22T09:48:25.165Z,1030.23
2017-03-22T09:49:25.160Z,1030.35
2017-03-22T09:50:25.154Z,1030.43
2017-03-22T09:51:25.149Z,1030.54
2017-03-22T09:52:25.143Z,1030.67
2017-03-22T09:53:25.138Z,1030.75
2017-03-22T09:54:25.131Z,1030.8
2017-03-22T09:55:25.126Z,1030.8
2017-03-22T09:56:25.121Z,1030.88
2017-03-22T09:57:25.115Z,1030.86
2017-03-22T09:58:25.109Z,1030.85
2017-03-22T09:59:25.104Z,1030.91
2017-03-22T10:00:25.097Z,1030.96
2017-03-22T10:01:25.091Z,1030.94
2017-03-22T10:02:25.085Z,1030.9
2017-03-22T10:03:25.079Z,1030.84
2017-03-22T10:04:25.074Z,1030.85
2017-03-22T10:05:25.067Z,1030.84
2017-03-22T10:06:25.060Z,1030.88
2017-03-22T10:07:25.055Z,1030.88
2017-03-22T10:08:25.049Z,1030.96
2017-03-22T10:09:25.042Z,1030.96
2017-03-22T10:10:25.037Z,1030.97
2017-03-22T10:11:25.030Z,1030.98
2017-03-22T10:12:25.024Z,1030.95
2017-03-22T10:13:25.016Z,1030.9
2017-03-22T10:14:25.011Z,1030.88
2017-03-22T10:15:25.005Z,1030.77
2017-03-22T10:16:25.000Z,1030.68
2017-03-22T10:17:24.991Z,1030.66
2017-03-22T10:18:24.986Z,1030.54
2017-03-22T10:19:24.979Z,1030.5
2017-03-22T10:20:24.972Z,1030.48
2017-03-22T10:21:24.966Z,1030.42
2017-03-22T10:22:24.962Z,1030.41
2017-03-22T10:23:24.954Z,1030.38
2017-03-22T10:24:24.947Z,1030.34
2017-03-22T10:25:24.941Z,1030.41
2017-03-22T10:26:24.937Z,1030.41
2017-03-22T10:27:24.929Z,1030.44
2017-03-22T10:28:24.923Z,1030.53
2017-03-22T10:29:24.916Z,1030.61
2017-03-22T10:30:24.911Z,1030.65
2017-03-22T10:31:24.905Z,1030.71
2017-03-22T10:32:24.898Z,1030.79
2017-03-22T10:33:24.892Z,1030.85
2017-03-22T10:34:24.886Z,1030.84
2017-03-22T10:35:24.881Z,1030.84
2017-03-22T10:36:24.875Z,1030.85
2017-03-22T10:37:24.870Z,1030.9
2017-03-22T10:38:24.862Z,1030.96
2017-03-22T10:39:24.857Z,1031
2017-03-22T10:40:24.850Z,1031.04
2017-03-22T10:41:24.844Z,1031.11
2017-03-22T10:42:24.838Z,1031.13
2017-03-22T10:43:24.832Z,1031.16
2017-03-22T10:44:24.826Z,1031.13
2017-03-22T10:45:24.819Z,1031.17
2017-03-22T10:46:24.813Z,1031.15
2017-03-22T10:47:24.806Z,1031.1
2017-03-22T10:48:24.800Z,1031.03
2017-03-22T10:49:24.793Z,1031.05
2017-03-22T10:50:24.787Z,1031.03
2017-03-22T10:51:24.781Z,1030.99
2017-03-22T10:52:24.775Z,1030.97
2017-03-22T10:53:24.768Z,1030.86
2017-03-22T10:54:24.762Z,1030.78
2017-03-22T10:55:24.756Z,1030.7
2017-03-22T10:56:24.749Z,1030.64
2017-03-22T10:57:24.743Z,1030.55
2017-03-22T10:58:24.737Z,1030.43
2017-03-22T10:59:24.731Z,1030.33
2017-03-22T11:00:24.724Z,1030.21
2017-03-22T11:01:24.718Z,1030.08
2017-03-22T11:02:24.712Z,1030.01
2017-03-22T11:03:24.706Z,1029.91
2017-03-22T11:04:24.699Z,1029.89
2017-03-22T11:05:24.694Z,1029.91
2017-03-22T11:06:24.688Z,1029.88
2017-03-22T11:07:24.682Z,1029.84
2017-03-22T11:08:24.676Z,1029.79
2017-03-22T11:09:24.670Z,1029.78
2017-03-22T11:10:24.665Z,1029.8
2017-03-22T11:11:24.658Z,1029.82
2017-03-22T11:12:24.653Z,1029.87
2017-03-22T11:13:24.647Z,1029.93
2017-03-22T11:14:24.643Z,1029.98
2017-03-22T11:15:24.636Z,1030.01
2017-03-22T11:16:24.631Z,1030.11
2017-03-22T11:17:24.625Z,1030.11
2017-03-22T11:18:24.619Z,1030.22
2017-03-22T11:19:24.614Z,1030.28
2017-03-22T11:20:24.609Z,1030.34
2017-03-22T11:21:24.904Z,1030.39
2017-03-22T11:22:24.597Z,1030.44
2017-03-22T11:23:24.592Z,1030.4
2017-03-22T11:24:24.586Z,1030.4
2017-03-22T11:25:24.581Z,1030.45
2017-03-22T11:26:24.576Z,1030.47
2017-03-22T11:27:24.569Z,1030.45
2017-03-22T11:28:24.564Z,1030.5
2017-03-22T11:29:24.557Z,1030.51
2017-03-22T11:30:24.552Z,1030.49
2017-03-22T11:31:24.546Z,1030.51
2017-03-22T11:32:24.540Z,1030.52
2017-03-22T11:33:24.534Z,1030.48
2017-03-22T11:34:24.528Z,1030.51
2017-03-22T11:35:24.523Z,1030.48
2017-03-22T11:36:24.517Z,1030.47
2017-03-22T11:37:24.510Z,1030.46
2017-03-22T11:38:24.505Z,1030.49
2017-03-22T11:39:24.500Z,1030.55
2017-03-22T11:40:24.493Z,1030.55
2017-03-22T11:41:24.487Z,1030.64
2017-03-22T11:42:24.511Z,1030.66
2017-03-22T11:43:24.475Z,1030.69
2017-03-22T11:44:24.469Z,1030.66
2017-03-22T11:45:24.464Z,1030.68
2017-03-22T11:46:24.458Z,1030.62
2017-03-22T11:47:24.452Z,1030.61
2017-03-22T11:48:24.445Z,1030.6
2017-03-22T11:49:24.439Z,1030.54
2017-03-22T11:50:24.434Z,1030.51
2017-03-22T11:51:24.427Z,1030.45
2017-03-22T11:52:24.422Z,1030.58
2017-03-22T11:53:24.414Z,1030.63
2017-03-22T11:54:24.409Z,1030.64
2017-03-22T11:55:24.403Z,1030.62
2017-03-22T11:56:24.397Z,1030.64
2017-03-22T11:57:24.391Z,1030.63
2017-03-22T11:58:24.387Z,1030.64
2017-03-22T11:59:24.378Z,1030.63
2017-03-22T12:00:24.373Z,1030.54
2017-03-22T12:01:24.367Z,1030.55
2017-03-22T12:02:24.362Z,1030.5
2017-03-22T12:03:24.354Z,1030.49
2017-03-22T12:04:24.349Z,1030.49
2017-03-22T12:05:24.343Z,1030.48
2017-03-22T12:06:24.336Z,1030.47
2017-03-22T12:07:24.330Z,1030.5
2017-03-22T12:08:24.325Z,1030.49
2017-03-22T12:09:24.319Z,1030.47
2017-03-22T12:10:24.313Z,1030.36
2017-03-22T12:11:24.307Z,1030.28
2017-03-22T12:12:24.302Z,1030.21
2017-03-22T12:13:24.294Z,1030.02
2017-03-22T12:14:24.288Z,1029.87
2017-03-22T12:15:24.283Z,1029.75
2017-03-22T12:16:24.279Z,1029.7
2017-03-22T12:17:24.271Z,1029.56